createdAt,value
2022-08-21T07:52:25.882Z,101268.41
2022-08-21T07:55:00.751Z,101258.84
2022-08-21T07:57:29.966Z,101263.84
2022-08-21T07:59:56.461Z,101258.56
2022-08-21T08:02:27.580Z,101264.84
2022-08-21T08:04:54.282Z,101259.84
2022-08-21T08:07:20.805Z,101271.28
2022-08-21T08:09:47.298Z,101267.50
2022-08-21T08:12:13.852Z,101267.63
2022-08-21T08:14:40.444Z,101264.34
2022-08-21T08:17:07.005Z,101261.88
2022-08-21T08:19:33.557Z,101261.06
2022-08-21T08:22:00.085Z,101267.13
2022-08-21T08:24:26.678Z,101261.50
2022-08-21T08:26:54.963Z,101263.50
2022-08-21T08:29:23.045Z,101266.59
2022-08-21T08:31:49.564Z,101265.28
2022-08-21T08:34:25.148Z,101277.06
2022-08-21T08:36:52.459Z,101270.06
2022-08-21T08:39:27.002Z,101254.97
2022-08-21T08:42:32.336Z,101264.03
2022-08-21T08:45:01.491Z,101251.97
2022-08-21T08:47:29.932Z,101260.75
2022-08-21T08:50:03.512Z,101257.75
2022-08-21T08:52:37.574Z,101261.84
2022-08-21T08:55:16.148Z,101257.69
2022-08-21T08:57:50.253Z,101254.88
2022-08-21T09:00:21.577Z,101262.59
2022-08-21T09:02:49.378Z,101256.25
2022-08-21T09:05:59.239Z,101259.00
2022-08-21T09:08:51.163Z,101241.63
2022-08-21T09:11:55.692Z,101246.38
2022-08-21T09:14:44.691Z,101245.47
2022-08-21T09:17:35.364Z,101249.72
2022-08-21T09:20:07.967Z,101242.97
2022-08-21T09:22:37.394Z,101245.50
2022-08-21T09:25:13.233Z,101234.53
2022-08-21T09:27:40.734Z,101249.56
2022-08-21T09:30:08.439Z,101240.66
2022-08-21T09:32:38.178Z,101235.91
2022-08-21T09:35:23.428Z,101237.22
2022-08-21T09:37:54.981Z,101241.13
2022-08-21T09:40:36.781Z,101236.72
2022-08-21T09:43:12.526Z,101233.28
2022-08-21T09:45:40.713Z,101236.72
2022-08-21T09:48:26.230Z,101238.88
2022-08-21T09:50:54.718Z,101230.91
2022-08-21T09:53:25.642Z,101234.69
2022-08-21T09:56:13.014Z,101229.16
2022-08-21T09:58:43.613Z,101232.28
2022-08-21T10:01:15.898Z,101229.59
2022-08-21T10:03:42.548Z,101229.38
2022-08-21T10:06:11.705Z,101230.91
2022-08-21T10:08:40.316Z,101219.25
2022-08-21T10:11:16.080Z,101223.28
2022-08-21T10:14:08.343Z,101217.47
2022-08-21T10:17:02.665Z,101207.19
2022-08-21T10:19:44.814Z,101223.47
2022-08-21T10:22:36.232Z,101227.03
2022-08-21T10:25:18.766Z,101220.13
2022-08-21T10:27:45.194Z,101202.31
2022-08-21T10:30:17.358Z,101212.47
2022-08-21T10:33:12.587Z,101218.44
2022-08-21T10:36:00.506Z,101203.84
2022-08-21T10:38:58.746Z,101202.97
2022-08-21T10:41:45.757Z,101203.09
2022-08-21T10:44:30.429Z,101206.16
2022-08-21T10:47:14.170Z,101192.16
2022-08-21T10:49:43.304Z,101204.09
2022-08-21T10:52:22.013Z,101209.66
2022-08-21T10:55:07.565Z,101206.34
2022-08-21T10:57:48.916Z,101198.16
2022-08-21T11:00:22.870Z,101209.06
2022-08-21T11:03:01.095Z,101197.06
2022-08-21T11:05:43.425Z,101196.81
2022-08-21T11:08:19.704Z,101197.19
2022-08-21T11:11:08.693Z,101197.19
2022-08-21T11:13:46.496Z,101190.09
2022-08-21T11:16:40.686Z,101203.78
2022-08-21T11:19:37.690Z,101207.00
2022-08-21T11:22:29.312Z,101200.44
2022-08-21T11:25:08.164Z,101193.94
2022-08-21T11:27:46.734Z,101200.19
2022-08-21T11:30:15.276Z,101195.44
2022-08-21T11:32:47.512Z,101186.47
2022-08-21T11:35:40.586Z,101192.19
2022-08-21T11:38:23.012Z,101192.31
2022-08-21T11:41:00.384Z,101194.66
2022-08-21T11:43:36.714Z,101180.94
2022-08-21T11:46:40.637Z,101194.84
2022-08-21T11:49:40.885Z,101187.97
2022-08-21T11:52:24.410Z,101198.66
2022-08-21T11:55:00.837Z,101198.78
2022-08-21T11:57:32.270Z,101199.69
2022-08-21T12:00:17.544Z,101200.19
2022-08-21T12:02:49.014Z,101200.69
2022-08-21T12:05:55.572Z,101191.03
2022-08-21T12:08:33.947Z,101198.72
2022-08-21T12:11:11.555Z,101185.31
2022-08-21T12:13:42.625Z,101194.03
2022-08-21T12:16:40.141Z,101198.94
2022-08-21T12:19:10.826Z,101192.34
2022-08-21T12:21:49.509Z,101184.59
2022-08-21T12:24:16.100Z,101187.41
2022-08-21T12:26:53.643Z,101179.50
2022-08-21T12:29:25.148Z,101184.63
2022-08-21T12:31:58.581Z,101177.19
2022-08-21T12:34:32.671Z,101185.97
2022-08-21T12:37:22.469Z,101176.59
2022-08-21T12:39:53.700Z,101179.19
2022-08-21T12:42:38.532Z,101180.59
2022-08-21T12:45:18.353Z,101190.66
2022-08-21T12:47:49.196Z,101171.50
2022-08-21T12:50:24.362Z,101167.88
2022-08-21T12:53:18.413Z,101163.94
2022-08-21T12:55:47.620Z,101164.56
2022-08-21T12:58:22.064Z,101169.50
2022-08-21T13:00:55.612Z,101170.72
2022-08-21T13:03:23.375Z,101183.03
2022-08-21T13:05:52.807Z,101167.34
2022-08-21T13:08:21.947Z,101158.94
2022-08-21T13:10:57.321Z,101166.50
2022-08-21T13:13:28.424Z,101165.91
2022-08-21T13:16:05.675Z,101156.44
2022-08-21T13:18:36.084Z,101153.66
2022-08-21T13:21:13.784Z,101153.69
2022-08-21T13:23:41.063Z,101153.50
2022-08-21T13:26:18.621Z,101156.53
2022-08-21T13:28:48.343Z,101155.63
2022-08-21T13:31:22.063Z,101141.88
2022-08-21T13:33:50.258Z,101149.53
2022-08-21T13:36:27.061Z,101149.41
2022-08-21T13:38:55.295Z,101148.19
2022-08-21T13:41:34.979Z,101147.72
2022-08-21T13:44:19.991Z,101146.81
2022-08-21T13:46:48.930Z,101151.34
2022-08-21T13:49:19.502Z,101145.84
2022-08-21T13:51:47.616Z,101145.56
2022-08-21T13:54:24.333Z,101140.94
2022-08-21T13:56:51.635Z,101140.44
2022-08-21T13:59:26.639Z,101135.78
2022-08-21T14:01:59.985Z,101137.03
2022-08-21T14:04:44.060Z,101143.00
2022-08-21T14:07:30.389Z,101147.69
2022-08-21T14:09:57.009Z,101137.91
2022-08-21T14:12:43.084Z,101143.28
2022-08-21T14:15:11.004Z,101142.59
2022-08-21T14:17:40.380Z,101150.13
2022-08-21T14:20:08.670Z,101142.19
2022-08-21T14:22:42.633Z,101152.56
2022-08-21T14:25:14.657Z,101135.00
2022-08-21T14:28:09.601Z,101148.72
2022-08-21T14:30:39.475Z,101145.84
2022-08-21T14:33:13.641Z,101135.59
2022-08-21T14:35:40.775Z,101153.41
2022-08-21T14:38:17.608Z,101146.56
2022-08-21T14:40:47.767Z,101138.59
2022-08-21T14:43:14.319Z,101132.41
2022-08-21T14:45:41.691Z,101130.88
2022-08-21T14:48:09.263Z,101135.31
2022-08-21T14:50:36.253Z,101138.88
2022-08-21T14:53:04.969Z,101115.31
2022-08-21T14:55:58.031Z,101131.03
2022-08-21T14:58:25.487Z,101127.97
2022-08-21T15:00:57.256Z,101125.44
2022-08-21T15:03:23.820Z,101124.31
2022-08-21T15:05:50.867Z,101134.94
2022-08-21T15:08:18.217Z,101132.97
2022-08-21T15:11:10.038Z,101130.47
2022-08-21T15:13:32.870Z,101134.44
2022-08-21T15:15:59.800Z,101137.81
2022-08-21T15:18:28.167Z,101138.91
2022-08-21T15:20:54.911Z,101131.88
2022-08-21T15:23:21.721Z,101129.78
2022-08-21T15:25:49.726Z,101125.34
2022-08-21T15:52:14.514Z,101111.03
2022-08-21T15:54:41.488Z,101120.38
2022-08-21T15:57:10.826Z,101113.31
2022-08-21T15:59:44.288Z,101119.41
2022-08-21T16:02:23.822Z,101120.09
2022-08-21T16:04:50.393Z,101125.94
2022-08-21T16:07:17.053Z,101119.56
2022-08-21T16:09:44.041Z,101123.03
2022-08-21T16:12:22.639Z,101116.84
2022-08-21T16:14:50.733Z,101114.34
2022-08-21T16:17:17.270Z,101121.41
2022-08-21T16:19:43.940Z,101105.69
2022-08-21T16:22:10.556Z,101108.34
2022-08-21T16:24:37.094Z,101108.56
2022-08-21T16:27:08.150Z,101119.72
2022-08-21T16:29:37.130Z,101122.09
2022-08-21T16:32:05.166Z,101121.47
2022-08-21T16:34:32.006Z,101118.47
2022-08-21T16:36:58.574Z,101110.78
2022-08-21T16:39:25.498Z,101118.88
2022-08-21T16:41:52.262Z,101112.84
2022-08-21T16:44:21.536Z,101117.06
2022-08-21T16:46:48.220Z,101117.84
2022-08-21T16:49:14.798Z,101115.03
2022-08-21T16:51:41.625Z,101121.75
2022-08-21T16:54:08.157Z,101113.56
2022-08-21T16:56:38.430Z,101119.91
2022-08-21T16:59:06.736Z,101113.44
2022-08-21T17:01:35.381Z,101113.13
2022-08-21T17:04:03.377Z,101116.22
2022-08-21T17:06:31.176Z,101123.03
2022-08-21T17:08:58.713Z,101117.28
2022-08-21T17:11:37.073Z,101116.22
2022-08-21T17:14:12.237Z,101116.94
2022-08-21T17:16:41.058Z,101116.19
2022-08-21T17:19:08.327Z,101121.59
2022-08-21T17:21:35.194Z,101111.75
2022-08-21T17:24:01.710Z,101122.56
2022-08-21T17:26:28.323Z,101117.44
2022-08-21T17:28:55.226Z,101117.38
2022-08-21T17:31:22.327Z,101118.38
2022-08-21T17:33:52.945Z,101120.16
2022-08-21T17:36:21.902Z,101119.03
2022-08-21T17:38:48.601Z,101117.88
2022-08-21T17:41:16.176Z,101120.06
2022-08-21T17:43:43.207Z,101107.78
2022-08-21T17:46:22.677Z,101112.06
2022-08-21T17:48:49.274Z,101116.88
2022-08-21T17:51:16.980Z,101114.97
2022-08-21T17:53:44.996Z,101118.44
2022-08-21T17:56:14.061Z,101110.84
2022-08-21T17:58:43.053Z,101109.91
2022-08-21T18:01:11.152Z,101112.06
2022-08-21T18:03:38.218Z,101112.97
2022-08-21T18:06:05.883Z,101110.06
2022-08-21T18:08:33.209Z,101119.47
2022-08-21T18:11:00.882Z,101118.91
2022-08-21T18:13:34.155Z,101126.44
2022-08-21T18:16:01.285Z,101120.25
2022-08-21T18:18:36.826Z,101117.53
2022-08-21T18:21:03.542Z,101120.16
2022-08-21T18:23:37.561Z,101124.84
2022-08-21T18:26:13.405Z,101117.22
2022-08-21T18:28:40.810Z,101122.97
2022-08-21T18:31:10.643Z,101132.13
2022-08-21T18:33:38.390Z,101115.88
2022-08-21T18:36:05.946Z,101122.38
2022-08-21T18:38:33.075Z,101118.72
2022-08-21T18:40:59.811Z,101129.03
2022-08-21T18:43:26.995Z,101132.56
2022-08-21T18:45:54.126Z,101135.13
2022-08-21T18:48:20.919Z,101133.78
2022-08-21T18:50:53.846Z,101137.69
2022-08-21T18:53:27.487Z,101136.91
2022-08-21T18:55:57.007Z,101139.91
2022-08-21T18:58:25.562Z,101139.31
2022-08-21T19:00:52.697Z,101143.75
2022-08-21T19:03:23.865Z,101140.75
2022-08-21T19:05:52.619Z,101149.91
2022-08-21T19:08:22.755Z,101151.34
2022-08-21T19:10:51.412Z,101151.53
2022-08-21T19:13:20.685Z,101148.44
2022-08-21T19:15:52.722Z,101155.19
2022-08-21T19:18:28.403Z,101154.53
2022-08-21T19:20:56.074Z,101151.41
2022-08-21T19:23:29.231Z,101160.03
2022-08-21T19:26:00.884Z,101158.47
2022-08-21T19:28:29.707Z,101161.63
2022-08-21T19:31:12.617Z,101168.38
2022-08-21T19:33:47.412Z,101165.09
2022-08-21T19:36:18.018Z,101168.03
2022-08-21T19:38:45.975Z,101170.56
2022-08-21T19:41:15.596Z,101163.34
2022-08-21T19:43:49.842Z,101166.03
2022-08-21T19:46:24.474Z,101168.50
2022-08-21T19:48:52.724Z,101171.34
2022-08-21T19:51:19.310Z,101165.88
2022-08-21T19:53:45.835Z,101167.59
2022-08-21T19:56:18.004Z,101162.72
2022-08-21T19:58:47.470Z,101174.94
2022-08-21T20:01:18.502Z,101170.84
2022-08-21T20:03:53.758Z,101161.09
2022-08-21T20:06:20.894Z,101172.03
2022-08-21T20:08:48.245Z,101170.44
2022-08-21T20:11:26.113Z,101173.72
2022-08-21T20:13:53.608Z,101170.25
2022-08-21T20:16:21.513Z,101166.66
2022-08-21T20:18:48.859Z,101167.75
2022-08-21T20:21:16.141Z,101179.50
2022-08-21T20:23:48.820Z,101178.97
2022-08-21T20:26:16.676Z,101176.16
2022-08-21T20:28:44.087Z,101168.31
2022-08-21T20:31:11.055Z,101183.50
2022-08-21T20:33:41.823Z,101183.50
2022-08-21T20:36:09.425Z,101181.19
2022-08-21T20:38:36.603Z,101185.09
2022-08-21T20:41:04.137Z,101184.97
2022-08-21T20:43:32.469Z,101181.06
2022-08-21T20:46:00.742Z,101181.38
2022-08-21T20:48:49.251Z,101178.56
2022-08-21T20:51:31.755Z,101170.41
2022-08-21T20:54:04.978Z,101181.22
2022-08-21T20:56:48.214Z,101168.88
2022-08-21T20:59:30.006Z,101176.72
2022-08-21T21:02:20.915Z,101177.31
2022-08-21T21:04:55.604Z,101170.09
2022-08-21T21:07:31.317Z,101172.59
2022-08-21T21:10:02.102Z,101174.44
2022-08-21T21:12:35.193Z,101156.91
2022-08-21T21:15:10.265Z,101163.00
2022-08-21T21:17:45.826Z,101170.53
2022-08-21T21:20:40.380Z,101177.72
2022-08-21T21:23:27.014Z,101166.91
2022-08-21T21:26:06.558Z,101176.16
2022-08-21T21:28:48.349Z,101176.63
2022-08-21T21:31:15.183Z,101179.28
2022-08-21T21:33:42.677Z,101177.25
2022-08-21T21:36:28.217Z,101173.19
2022-08-21T21:39:10.459Z,101179.28
2022-08-21T21:42:04.570Z,101182.72
2022-08-21T21:44:50.146Z,101180.00
2022-08-21T21:47:35.360Z,101185.38
2022-08-21T21:50:42.554Z,101184.53
2022-08-21T21:53:36.854Z,101188.28
2022-08-21T21:56:22.982Z,101181.06
2022-08-21T21:59:08.407Z,101181.53
2022-08-21T22:04:50.942Z,101184.03
2022-08-21T22:07:27.236Z,101180.69
2022-08-21T22:10:05.446Z,101189.28
2022-08-21T22:12:49.784Z,101180.16
2022-08-21T22:15:26.331Z,101178.28
2022-08-21T22:18:00.655Z,101189.75
2022-08-21T22:20:33.993Z,101182.97
2022-08-21T22:23:05.001Z,101182.53
2022-08-21T22:25:38.237Z,101180.16
2022-08-21T22:28:10.553Z,101172.34
2022-08-21T22:30:46.751Z,101183.44
2022-08-21T22:33:25.509Z,101182.78
2022-08-21T22:35:57.410Z,101188.13
2022-08-21T22:38:27.657Z,101191.19
2022-08-21T22:41:12.724Z,101188.03
2022-08-21T22:43:58.208Z,101183.22
2022-08-21T22:46:31.254Z,101189.16
2022-08-21T22:49:20.826Z,101192.09
2022-08-21T22:51:57.316Z,101189.56
2022-08-21T22:54:34.988Z,101191.56
2022-08-21T22:57:07.213Z,101190.00
2022-08-21T22:59:41.685Z,101191.22
2022-08-21T23:02:33.257Z,101181.22
2022-08-21T23:05:04.717Z,101187.19
2022-08-21T23:07:44.476Z,101186.84
2022-08-21T23:10:30.007Z,101188.88
2022-08-21T23:13:09.484Z,101188.22
2022-08-21T23:16:06.224Z,101191.16
2022-08-21T23:18:36.127Z,101194.41
2022-08-21T23:21:15.883Z,101187.69
2022-08-21T23:24:03.888Z,101188.59
2022-08-21T23:26:56.128Z,101185.44
2022-08-21T23:30:04.546Z,101180.25
2022-08-21T23:33:02.707Z,101176.53
2022-08-21T23:36:09.130Z,101183.88
2022-08-21T23:38:35.455Z,101181.19
2022-08-21T23:41:18.786Z,101176.91
2022-08-21T23:44:09.898Z,101175.94
2022-08-21T23:46:57.192Z,101177.31
2022-08-21T23:49:43.944Z,101172.84
2022-08-21T23:52:33.140Z,101180.47
2022-08-21T23:54:59.926Z,101178.56
2022-08-21T23:57:51.088Z,101170.28
